createdAt,value
2022-09-14T00:01:25.469Z,15.83
2022-09-14T00:03:57.948Z,16.12
2022-09-14T00:06:25.606Z,16.15
2022-09-14T00:08:54.172Z,16.41
2022-09-14T00:11:23.644Z,16.26
2022-09-14T00:13:50.781Z,16.69
2022-09-14T00:16:23.994Z,15.81
2022-09-14T00:18:56.625Z,16.44
2022-09-14T00:21:24.724Z,16.68
2022-09-14T00:23:51.684Z,16.87
2022-09-14T00:26:21.956Z,16.87
2022-09-14T00:28:55.627Z,16.98
2022-09-14T00:31:23.582Z,16.98
2022-09-14T00:33:51.739Z,17.14
2022-09-14T00:36:21.627Z,16.96
2022-09-14T00:38:48.919Z,17.07
2022-09-14T00:41:24.079Z,16.94
2022-09-14T00:44:02.174Z,16.95
2022-09-14T00:46:37.410Z,17.16
2022-09-14T00:49:08.132Z,16.99
2022-09-14T00:51:37.701Z,17.29
2022-09-14T00:54:06.938Z,17.27
2022-09-14T00:56:34.204Z,17.11
2022-09-14T00:59:12.475Z,17.00
2022-09-14T01:01:39.243Z,16.94
2022-09-14T01:04:05.846Z,17.06
2022-09-14T01:07:22.418Z,17.15
2022-09-14T01:10:15.467Z,16.75
2022-09-14T01:13:07.384Z,16.85
2022-09-14T01:16:04.683Z,16.82
2022-09-14T01:18:38.542Z,17.07
2022-09-14T01:21:23.725Z,16.99
2022-09-14T01:24:16.608Z,16.26
2022-09-14T01:27:02.209Z,16.06
2022-09-14T01:30:04.912Z,16.42
2022-09-14T01:32:54.982Z,16.69
2022-09-14T01:35:33.979Z,16.95
2022-09-14T01:38:06.150Z,17.00
2022-09-14T01:40:44.040Z,17.05
2022-09-14T01:43:36.710Z,16.90
2022-09-14T01:46:09.064Z,16.95
2022-09-14T01:48:53.217Z,17.06
2022-09-14T01:51:27.324Z,16.56
2022-09-14T01:54:03.564Z,16.44
2022-09-14T01:56:38.965Z,15.62
2022-09-14T01:59:08.608Z,14.55
2022-09-14T02:01:50.681Z,15.02
2022-09-14T02:04:42.324Z,15.70
2022-09-14T02:07:09.365Z,15.68
2022-09-14T02:09:36.152Z,15.98
2022-09-14T02:12:02.929Z,16.12
2022-09-14T02:14:30.682Z,15.44
2022-09-14T02:16:57.950Z,15.48
2022-09-14T02:19:26.869Z,15.70
2022-09-14T02:21:53.688Z,16.02
2022-09-14T02:24:20.761Z,16.16
2022-09-14T02:26:51.387Z,16.10
2022-09-14T02:29:18.074Z,15.76
2022-09-14T02:31:51.292Z,15.73
2022-09-14T02:34:32.839Z,15.49
2022-09-14T02:37:19.425Z,14.99
2022-09-14T02:39:59.289Z,15.28
2022-09-14T02:42:37.281Z,15.38
2022-09-14T02:45:09.622Z,15.62
2022-09-14T02:47:51.479Z,15.38
2022-09-14T02:50:42.431Z,15.33
2022-09-14T02:53:11.981Z,15.16
2022-09-14T02:55:46.267Z,15.35
2022-09-14T02:58:14.569Z,15.42
2022-09-14T03:00:50.804Z,15.36
2022-09-14T03:03:20.618Z,15.47
2022-09-14T03:05:47.813Z,14.73
2022-09-14T03:08:14.598Z,14.98
2022-09-14T03:10:44.752Z,15.05
2022-09-14T03:13:11.929Z,14.96
2022-09-14T03:15:38.674Z,14.81
2022-09-14T03:18:09.990Z,14.92
2022-09-14T03:20:39.059Z,14.81
2022-09-14T03:23:09.047Z,15.01
2022-09-14T03:25:41.565Z,14.55
2022-09-14T03:28:09.151Z,14.74
2022-09-14T03:30:36.308Z,15.14
2022-09-14T03:33:03.371Z,15.31
2022-09-14T03:35:31.584Z,14.79
2022-09-14T03:37:59.786Z,14.94
2022-09-14T03:40:27.428Z,15.30
2022-09-14T03:42:54.247Z,14.45
2022-09-14T03:45:21.893Z,14.28
2022-09-14T03:47:49.250Z,14.55
2022-09-14T03:50:17.560Z,14.86
2022-09-14T03:52:44.231Z,14.94
2022-09-14T03:55:11.600Z,13.99
2022-09-14T03:57:38.889Z,13.92
2022-09-14T04:00:07.539Z,14.33
2022-09-14T04:02:34.422Z,14.81
2022-09-14T04:05:01.143Z,14.99
2022-09-14T04:07:27.817Z,14.67
2022-09-14T04:09:54.434Z,14.97
2022-09-14T04:12:21.023Z,15.39
2022-09-14T04:14:47.646Z,13.59
2022-09-14T04:17:14.224Z,14.14
2022-09-14T04:19:41.036Z,14.58
2022-09-14T04:22:08.085Z,14.71
2022-09-14T04:24:34.967Z,14.89
2022-09-14T04:27:02.203Z,15.02
2022-09-14T04:29:30.704Z,15.28
2022-09-14T04:31:57.884Z,14.96
2022-09-14T04:34:25.580Z,15.07
2022-09-14T04:36:52.416Z,15.13
2022-09-14T04:39:19.502Z,15.16
2022-09-14T04:41:46.577Z,15.29
2022-09-14T04:44:13.739Z,15.48
2022-09-14T04:46:46.493Z,15.58
2022-09-14T04:49:15.054Z,15.85
2022-09-14T04:51:41.639Z,15.94
2022-09-14T04:54:08.302Z,16.07
2022-09-14T04:56:37.028Z,16.07
2022-09-14T04:59:05.791Z,16.08
2022-09-14T05:01:38.399Z,16.01
2022-09-14T05:04:07.129Z,16.02
2022-09-14T05:06:37.678Z,14.62
2022-09-14T05:09:07.732Z,15.22
2022-09-14T05:11:36.046Z,15.74
2022-09-14T05:14:03.350Z,16.08
2022-09-14T05:16:33.320Z,15.74
2022-09-14T05:19:02.203Z,16.21
2022-09-14T05:21:30.707Z,16.15
2022-09-14T05:23:59.707Z,16.51
2022-09-14T05:26:28.594Z,16.64
2022-09-14T05:28:58.554Z,16.68
2022-09-14T05:31:26.603Z,16.75
2022-09-14T05:33:53.826Z,16.67
2022-09-14T05:36:21.225Z,16.70
2022-09-14T05:38:47.833Z,16.66
2022-09-14T05:41:15.787Z,17.06
2022-09-14T05:43:43.542Z,17.08
2022-09-14T05:46:12.952Z,16.90
2022-09-14T05:48:40.394Z,16.66
2022-09-14T05:51:14.110Z,16.70
2022-09-14T05:53:40.835Z,16.06
2022-09-14T05:56:10.212Z,16.73
2022-09-14T05:58:38.369Z,16.83
2022-09-14T06:01:11.807Z,16.84
2022-09-14T06:03:38.995Z,17.12
2022-09-14T06:06:07.094Z,16.93
2022-09-14T06:08:34.250Z,16.98
2022-09-14T06:11:06.258Z,17.31
2022-09-14T06:13:33.263Z,17.39
2022-09-14T06:16:26.842Z,17.30
2022-09-14T06:18:55.911Z,16.12
2022-09-14T06:21:23.232Z,16.92
2022-09-14T06:23:51.036Z,17.21
2022-09-14T06:26:18.091Z,17.34
2022-09-14T06:28:45.021Z,17.89
2022-09-14T06:31:13.734Z,18.10
2022-09-14T06:33:44.884Z,18.10
2022-09-14T06:36:14.551Z,18.19
2022-09-14T06:38:42.242Z,18.13
2022-09-14T06:41:12.378Z,17.87
2022-09-14T06:43:40.444Z,17.61
2022-09-14T06:46:19.603Z,17.98
2022-09-14T06:49:07.653Z,18.17
2022-09-14T06:51:37.022Z,17.92
2022-09-14T06:54:05.319Z,18.24
2022-09-14T06:56:34.311Z,18.29
2022-09-14T06:59:00.915Z,18.03
2022-09-14T07:01:28.374Z,18.04
2022-09-14T07:03:55.322Z,18.45
2022-09-14T07:06:24.269Z,18.91
2022-09-14T07:08:52.072Z,18.41
2022-09-14T07:11:22.196Z,18.98
2022-09-14T07:13:48.936Z,19.31
2022-09-14T07:16:16.039Z,19.19
2022-09-14T07:18:42.988Z,19.26
2022-09-14T07:21:15.407Z,19.47
2022-09-14T07:23:44.367Z,19.36
2022-09-14T07:26:15.599Z,19.23
2022-09-14T07:28:44.166Z,19.45
2022-09-14T07:31:17.217Z,19.42
2022-09-14T07:33:43.954Z,19.80
2022-09-14T07:36:12.703Z,19.80
2022-09-14T07:38:55.322Z,19.57
2022-09-14T07:41:23.564Z,19.72
2022-09-14T07:43:55.186Z,19.18
2022-09-14T07:46:22.573Z,19.81
2022-09-14T07:48:54.718Z,19.69
2022-09-14T07:51:22.227Z,19.72
2022-09-14T07:53:48.815Z,19.96
2022-09-14T07:56:16.946Z,19.25
2022-09-14T07:58:44.641Z,19.79
2022-09-14T08:01:14.894Z,20.16
2022-09-14T08:03:43.593Z,19.95
2022-09-14T08:06:16.465Z,20.37
2022-09-14T08:08:45.175Z,19.96
2022-09-14T08:11:14.919Z,20.59
2022-09-14T08:13:46.983Z,20.48
2022-09-14T08:16:14.963Z,20.88
2022-09-14T08:18:41.880Z,20.47
2022-09-14T08:21:11.614Z,20.66
2022-09-14T08:23:39.087Z,20.75
2022-09-14T08:26:09.268Z,20.17
2022-09-14T08:28:38.713Z,20.76
2022-09-14T08:31:07.226Z,20.61
2022-09-14T08:33:35.491Z,21.06
2022-09-14T08:36:02.925Z,20.82
2022-09-14T08:38:30.012Z,21.21
2022-09-14T08:40:58.986Z,21.13
2022-09-14T08:43:27.240Z,21.44
2022-09-14T08:46:03.281Z,21.19
2022-09-14T08:48:41.636Z,20.99
2022-09-14T08:51:08.292Z,20.89
2022-09-14T08:53:39.547Z,21.16
2022-09-14T08:56:26.728Z,21.44
2022-09-14T08:59:24.642Z,21.55
2022-09-14T09:02:33.194Z,21.30
2022-09-14T09:05:30.676Z,21.66
2022-09-14T09:08:06.960Z,21.50
2022-09-14T09:10:35.321Z,21.88
2022-09-14T09:13:05.904Z,21.81
2022-09-14T09:15:49.459Z,21.96
2022-09-14T09:18:31.326Z,21.81
2022-09-14T09:21:05.811Z,22.15
2022-09-14T09:23:34.016Z,21.84
2022-09-14T09:26:27.664Z,22.19
2022-09-14T09:28:59.625Z,22.42
2022-09-14T09:31:36.747Z,22.34
2022-09-14T09:34:03.978Z,22.56
2022-09-14T09:36:35.736Z,22.73
2022-09-14T09:39:05.343Z,22.90
2022-09-14T09:41:50.431Z,22.95
2022-09-14T09:44:17.142Z,22.75
2022-09-14T09:46:54.768Z,22.95
2022-09-14T09:49:40.078Z,22.49
2022-09-14T09:52:10.436Z,22.88
2022-09-14T09:54:39.928Z,23.02
2022-09-14T09:57:30.010Z,23.00
2022-09-14T10:00:13.320Z,23.15
2022-09-14T10:02:41.437Z,23.72
2022-09-14T10:05:11.183Z,23.78
2022-09-14T10:07:50.013Z,23.82
2022-09-14T10:10:20.023Z,24.20
2022-09-14T10:12:52.105Z,24.50
2022-09-14T10:15:23.132Z,24.42
2022-09-14T10:18:10.951Z,24.72
2022-09-14T10:20:41.404Z,24.52
2022-09-14T10:23:20.110Z,24.79
2022-09-14T10:26:07.776Z,24.72
2022-09-14T10:28:34.527Z,24.79
2022-09-14T10:31:08.782Z,24.67
2022-09-14T10:33:36.027Z,24.55
2022-09-14T10:36:09.083Z,24.83
2022-09-14T10:38:47.836Z,24.84
2022-09-14T10:41:27.168Z,25.09
2022-09-14T10:44:21.526Z,24.92
2022-09-14T10:47:04.562Z,25.01
2022-09-14T10:50:02.654Z,24.76
2022-09-14T10:52:50.507Z,24.84
2022-09-14T10:55:44.760Z,24.92
2022-09-14T10:58:42.578Z,25.27
2022-09-14T11:01:35.536Z,25.26
2022-09-14T11:04:14.434Z,25.24
2022-09-14T11:06:43.851Z,25.40
2022-09-14T11:09:16.220Z,25.14
2022-09-14T11:11:48.697Z,25.60
2022-09-14T11:14:15.285Z,25.55
2022-09-14T11:16:53.236Z,25.70
2022-09-14T11:19:26.653Z,25.48
2022-09-14T11:22:19.835Z,25.64
2022-09-14T11:24:50.893Z,25.64
2022-09-14T11:27:27.164Z,25.90
2022-09-14T11:30:00.136Z,25.97
2022-09-14T11:32:57.971Z,25.95
2022-09-14T11:35:45.834Z,26.06
2022-09-14T11:38:24.836Z,25.86
2022-09-14T11:41:03.800Z,25.89
2022-09-14T11:43:35.870Z,25.41
2022-09-14T11:46:10.221Z,26.14
2022-09-14T11:48:44.490Z,25.96
2022-09-14T11:51:20.794Z,26.07
2022-09-14T11:53:47.615Z,26.35
2022-09-14T11:56:34.001Z,26.38
2022-09-14T11:59:04.233Z,26.41
2022-09-14T12:01:32.982Z,26.67
2022-09-14T12:04:17.761Z,26.79
2022-09-14T12:06:54.230Z,26.64
2022-09-14T12:09:21.318Z,26.63
2022-09-14T12:11:53.057Z,26.69
2022-09-14T12:14:30.439Z,26.61
2022-09-14T12:17:13.065Z,26.64
2022-09-14T12:19:52.859Z,26.57
2022-09-14T12:22:32.511Z,26.81
2022-09-14T12:25:02.791Z,26.71
2022-09-14T12:27:32.373Z,26.73
2022-09-14T12:29:59.681Z,26.77
2022-09-14T12:32:44.288Z,26.76
2022-09-14T12:35:32.704Z,26.76
2022-09-14T12:37:59.479Z,26.66
2022-09-14T12:40:29.290Z,26.72
2022-09-14T12:42:55.992Z,26.73
2022-09-14T12:46:00.812Z,26.90
2022-09-14T12:48:45.825Z,27.11
2022-09-14T12:51:34.037Z,27.05
2022-09-14T12:54:09.465Z,27.19
2022-09-14T12:57:00.688Z,26.99
2022-09-14T12:59:51.612Z,26.93
2022-09-14T13:02:57.602Z,26.72
2022-09-14T13:05:26.919Z,27.04
2022-09-14T13:07:55.091Z,27.35
2022-09-14T13:10:33.694Z,27.23
2022-09-14T13:13:12.831Z,27.18
2022-09-14T13:15:51.997Z,27.27
2022-09-14T13:18:18.630Z,26.98
2022-09-14T13:20:53.905Z,26.90
2022-09-14T13:23:32.178Z,27.14
2022-09-14T13:25:59.279Z,27.35
2022-09-14T13:28:30.243Z,27.65
2022-09-14T13:30:59.799Z,27.44
2022-09-14T13:33:28.482Z,27.39
2022-09-14T13:35:58.054Z,27.27
2022-09-14T13:38:27.465Z,27.29
2022-09-14T13:40:56.595Z,27.28
2022-09-14T13:43:23.738Z,27.62
2022-09-14T13:45:51.675Z,27.44
2022-09-14T13:48:20.251Z,27.66
2022-09-14T13:50:52.043Z,27.82
2022-09-14T13:53:46.744Z,27.68
2022-09-14T13:56:22.481Z,27.89
2022-09-14T13:59:11.520Z,27.25
2022-09-14T14:02:04.281Z,27.42
2022-09-14T14:04:35.396Z,27.59
2022-09-14T14:07:27.677Z,27.66
2022-09-14T14:09:56.419Z,27.91
2022-09-14T14:12:32.028Z,27.88
2022-09-14T14:15:24.488Z,27.52
2022-09-14T14:17:51.354Z,27.72
2022-09-14T14:20:27.054Z,27.74
2022-09-14T14:23:05.661Z,27.56
2022-09-14T14:25:43.453Z,27.58
2022-09-14T14:28:17.161Z,27.56
2022-09-14T14:30:43.855Z,27.58
2022-09-14T14:33:13.713Z,27.68
2022-09-14T14:35:41.658Z,27.74
2022-09-14T14:38:08.242Z,27.66
2022-09-14T14:40:35.049Z,27.71
2022-09-14T14:43:05.743Z,27.70
2022-09-14T14:45:36.130Z,27.47
2022-09-14T14:48:03.966Z,27.82
2022-09-14T14:50:36.034Z,27.77
2022-09-14T14:53:03.820Z,27.84
2022-09-14T14:55:33.633Z,27.85
2022-09-14T14:58:02.915Z,27.67
2022-09-14T15:00:34.827Z,27.37
2022-09-14T15:03:01.860Z,27.43
2022-09-14T15:05:29.024Z,27.29
2022-09-14T15:07:56.147Z,26.99
2022-09-14T15:10:25.114Z,27.18
2022-09-14T15:12:52.456Z,27.24
2022-09-14T15:15:21.708Z,27.12
2022-09-14T15:17:48.271Z,27.07
2022-09-14T15:20:15.468Z,27.12
2022-09-14T15:22:42.838Z,27.23
2022-09-14T15:25:11.023Z,27.10
2022-09-14T15:27:37.850Z,27.21
2022-09-14T15:30:06.252Z,27.13
2022-09-14T15:32:32.941Z,27.06
2022-09-14T15:34:59.632Z,26.86
2022-09-14T15:37:26.195Z,27.04
2022-09-14T15:39:52.905Z,27.02
2022-09-14T15:42:20.064Z,27.03
2022-09-14T15:44:46.907Z,27.03
2022-09-14T15:47:17.485Z,26.95
2022-09-14T15:49:44.309Z,27.12
2022-09-14T15:52:12.008Z,26.91
2022-09-14T15:54:39.143Z,26.76
2022-09-14T15:57:10.163Z,26.72
2022-09-14T15:59:36.957Z,26.68
2022-09-14T16:02:04.339Z,26.55
2022-09-14T16:04:38.589Z,26.31
2022-09-14T16:07:09.912Z,26.45
2022-09-14T16:09:41.314Z,26.32
2022-09-14T16:12:12.594Z,26.30
2022-09-14T16:14:39.227Z,26.19
2022-09-14T16:17:05.889Z,26.21
2022-09-14T16:19:32.791Z,26.18
2022-09-14T16:22:00.726Z,26.15
2022-09-14T16:24:28.098Z,26.00
2022-09-14T16:26:55.384Z,26.02
2022-09-14T16:29:24.342Z,25.88
2022-09-14T16:31:51.852Z,25.88
2022-09-14T16:34:28.136Z,25.71
2022-09-14T16:36:56.591Z,25.73
2022-09-14T16:39:26.458Z,25.61
2022-09-14T16:41:57.339Z,25.58
2022-09-14T16:44:25.789Z,25.47
2022-09-14T16:46:53.861Z,25.42
2022-09-14T16:49:28.647Z,25.26
2022-09-14T16:51:56.789Z,25.25
2022-09-14T16:54:26.205Z,25.09
2022-09-14T16:56:57.054Z,24.99
2022-09-14T16:59:24.354Z,24.88
2022-09-14T17:01:54.653Z,25.00
2022-09-14T17:04:22.299Z,25.00
2022-09-14T17:06:51.514Z,25.08
2022-09-14T17:09:20.899Z,25.05
2022-09-14T17:11:48.574Z,24.94
2022-09-14T17:14:18.063Z,25.08
2022-09-14T17:16:44.865Z,24.96
2022-09-14T17:19:12.710Z,24.95
2022-09-14T17:21:41.551Z,24.94
2022-09-14T17:24:08.802Z,24.96
2022-09-14T17:26:35.590Z,24.76
2022-09-14T17:29:02.960Z,24.76
2022-09-14T17:31:32.792Z,24.80
2022-09-14T17:34:01.214Z,24.75
2022-09-14T17:36:28.621Z,24.64
2022-09-14T17:39:02.256Z,24.62
2022-09-14T17:41:31.651Z,24.72
2022-09-14T17:44:02.217Z,24.31
2022-09-14T17:46:29.708Z,24.31
2022-09-14T17:49:00.331Z,24.34
2022-09-14T17:51:29.393Z,24.42
2022-09-14T17:53:58.192Z,24.50
2022-09-14T17:56:26.735Z,24.47
2022-09-14T17:59:05.337Z,24.43
2022-09-14T18:01:33.402Z,23.65
2022-09-14T18:04:03.526Z,23.87
2022-09-14T18:06:36.979Z,24.33
2022-09-14T18:09:07.931Z,24.31
2022-09-14T18:11:34.878Z,24.10
2022-09-14T18:14:03.052Z,24.41
2022-09-14T18:16:30.158Z,24.28
2022-09-14T18:18:59.961Z,23.54
2022-09-14T18:21:27.858Z,24.22
2022-09-14T18:23:55.470Z,23.61
2022-09-14T18:26:23.660Z,23.99
2022-09-14T18:28:51.366Z,23.98
2022-09-14T18:31:19.745Z,24.41
2022-09-14T18:33:52.460Z,24.48
2022-09-14T18:36:20.487Z,24.50
2022-09-14T18:38:48.718Z,24.46
2022-09-14T18:41:17.180Z,24.32
2022-09-14T18:43:49.795Z,24.36
2022-09-14T18:46:17.993Z,24.33
2022-09-14T18:48:45.762Z,24.18
2022-09-14T18:51:15.179Z,24.08
2022-09-14T18:53:42.536Z,23.99
2022-09-14T18:56:12.212Z,24.13
2022-09-14T18:58:41.928Z,24.11
2022-09-14T19:01:12.815Z,24.24
2022-09-14T19:03:41.057Z,24.16
2022-09-14T19:06:11.319Z,24.10
2022-09-14T19:08:38.155Z,23.94
2022-09-14T19:11:09.888Z,23.97
2022-09-14T19:13:37.792Z,23.83
2022-09-14T19:16:15.746Z,23.77
2022-09-14T19:18:45.532Z,23.79
2022-09-14T19:21:24.165Z,23.65
2022-09-14T19:24:05.102Z,23.49
2022-09-14T19:26:44.758Z,23.54
2022-09-14T19:29:15.934Z,23.52
2022-09-14T19:31:42.754Z,23.45
2022-09-14T19:34:11.259Z,23.47
2022-09-14T19:36:37.891Z,23.52
2022-09-14T19:39:05.827Z,23.25
2022-09-14T19:41:33.926Z,23.30
2022-09-14T19:44:02.407Z,23.31
2022-09-14T19:46:31.141Z,23.30
2022-09-14T19:48:58.187Z,23.24
2022-09-14T19:51:27.435Z,23.29
2022-09-14T19:53:56.422Z,23.22
2022-09-14T19:56:28.086Z,23.14
2022-09-14T19:58:57.249Z,23.14
2022-09-14T20:01:25.656Z,23.21
2022-09-14T20:03:53.247Z,23.37
2022-09-14T20:06:31.454Z,22.72
2022-09-14T20:09:08.052Z,22.89
2022-09-14T20:11:36.443Z,23.05
2022-09-14T20:14:06.582Z,23.16
2022-09-14T20:16:36.200Z,23.12
2022-09-14T20:19:09.472Z,21.86
2022-09-14T20:21:37.570Z,22.46
2022-09-14T20:24:21.994Z,22.79
2022-09-14T20:26:50.278Z,22.96
2022-09-14T20:29:18.588Z,23.08
2022-09-14T20:31:45.572Z,23.04
2022-09-14T20:34:13.377Z,23.06
2022-09-14T20:36:39.994Z,22.96
2022-09-14T20:39:06.820Z,22.95
2022-09-14T20:41:35.740Z,22.79
2022-09-14T20:44:03.617Z,22.76
2022-09-14T20:46:35.217Z,22.82
2022-09-14T20:49:04.350Z,22.83
2022-09-14T20:51:31.056Z,22.85
2022-09-14T20:53:58.155Z,22.79
2022-09-14T20:56:28.361Z,22.81
2022-09-14T20:58:59.847Z,21.45
2022-09-14T21:01:30.037Z,22.15
2022-09-14T21:04:05.719Z,22.42
2022-09-14T21:06:39.281Z,22.55
2022-09-14T21:09:06.802Z,22.62
2022-09-14T21:11:33.711Z,22.57
2022-09-14T21:14:00.591Z,22.65
2022-09-14T21:16:37.055Z,22.61
2022-09-14T21:19:21.453Z,22.59
2022-09-14T21:21:49.096Z,22.61
2022-09-14T21:24:17.127Z,22.18
2022-09-14T21:26:44.659Z,22.20
2022-09-14T21:29:17.444Z,21.75
2022-09-14T21:31:44.492Z,22.16
2022-09-14T21:34:12.533Z,21.06
2022-09-14T21:36:42.750Z,21.28
2022-09-14T21:39:12.849Z,21.64
2022-09-14T21:41:41.342Z,22.11
2022-09-14T21:44:08.332Z,22.29
2022-09-14T21:46:35.417Z,22.42
2022-09-14T21:49:02.266Z,22.39
2022-09-14T21:51:34.870Z,22.02
2022-09-14T21:54:09.272Z,22.00
2022-09-14T21:56:38.507Z,21.98
2022-09-14T21:59:08.443Z,22.31
2022-09-14T22:01:35.290Z,22.30
2022-09-14T22:04:02.645Z,22.25
2022-09-14T22:06:30.648Z,22.27
2022-09-14T22:09:02.233Z,22.31
2022-09-14T22:11:32.803Z,22.24
2022-09-14T22:14:10.967Z,22.21
2022-09-14T22:16:38.520Z,22.26
2022-09-14T22:19:08.867Z,22.22
2022-09-14T22:21:36.987Z,21.88
2022-09-14T22:24:07.308Z,21.94
2022-09-14T22:26:35.123Z,21.83
2022-09-14T22:29:02.287Z,21.92
2022-09-14T22:31:31.534Z,22.02
2022-09-14T22:33:59.381Z,21.86
2022-09-14T22:36:28.884Z,21.79
2022-09-14T22:38:56.963Z,21.89
2022-09-14T22:41:26.067Z,21.76
2022-09-14T22:43:54.056Z,21.75
2022-09-14T22:46:21.672Z,21.87
2022-09-14T22:48:50.525Z,21.87
2022-09-14T22:51:20.410Z,21.84
2022-09-14T22:53:47.308Z,21.70
2022-09-14T22:56:20.521Z,21.70
2022-09-14T22:58:48.607Z,21.62
2022-09-14T23:01:24.400Z,21.26
2022-09-14T23:03:57.146Z,21.22
2022-09-14T23:06:37.826Z,21.41
2022-09-14T23:09:05.680Z,21.62
2022-09-14T23:11:32.722Z,21.44
2022-09-14T23:13:59.531Z,21.39
2022-09-14T23:16:28.237Z,21.50
2022-09-14T23:19:03.764Z,21.49
2022-09-14T23:21:31.599Z,21.55
2022-09-14T23:24:07.280Z,21.56
2022-09-14T23:26:34.367Z,21.59
2022-09-14T23:29:09.178Z,21.51
2022-09-14T23:31:35.869Z,21.12
2022-09-14T23:34:04.029Z,21.17
2022-09-14T23:36:31.321Z,21.24
2022-09-14T23:38:58.211Z,20.93
2022-09-14T23:41:27.162Z,21.07
2022-09-14T23:43:54.123Z,21.20
2022-09-14T23:46:21.726Z,21.32
2022-09-14T23:48:48.679Z,21.20
2022-09-14T23:51:15.941Z,21.17
2022-09-14T23:53:43.184Z,21.23
2022-09-14T23:56:10.477Z,21.23
2022-09-14T23:58:37.316Z,21.23
